OIIS  Semnan  Airport

Semnan, Iran

Add Bookmark
ICAO OIIS
Type Airport
Status Operational
Latitude
35° 35' 27" N
35.591099
Longitude
53° 29' 42" E
53.495098
Local (GMT +4.5 ) UTC
Aug 25, 2016 08:54 am Aug 25, 2016 04:24
Sunrise-Sunset Local UTC
Begin Civil Twilight 05:55 am 01:25
Sunrise 06:22 am 01:52
Sunset 07:33 pm 15:03
End Civil Twilight 08:00 pm 15:30
VFR
VFR
MVFR
MVFR
IFR
IFR
LIFR
LIFR
Unknown
Unavailable

Current Weather

METAR Observed VFR
OIIS 250400Z 12004KT CAVOK 26/03 Q1017 Thu, Aug 25, 2016 @ 04:00 UTC
(24 Minutes ago)
Visual Flight Rules
Wind Visibility Conditions
120° at 4 knots (7 kph) 10 km or more
  • No significant weather
Temperatures Readings Precipitation
Current Temp
26°C
79°F
Dewpoint
3°C
37°F
Humidity 23%
Altimeter 30.03" Hg
Sea Level Pressure 1,017 mb
Field Elevation
1,115 m
3,658 ft
None Recorded
-
-

CheckWX.com is intended as a tool to help pilots better visualize weather data. It is not intended as a substitute for an official weather briefing obtained from a Flight Service Station. CheckWX.com does not meet the FAA requirements for an official pre-flight weather briefing. Therefore, it's important that pilots still call and obtain an official FSS pre-flight weather briefing.

© 2007-2016 CheckWX.com
04:24:09 UTC